sensor_id;sensor_type;location;lat;lon;timestamp;pressure;altitude;pressure_sealevel;temperature;humidity
40920;BME280;26652;50.280;19.026;2023-04-02T00:01:36;97240.16;;;10.43;100.00
40920;BME280;26652;50.280;19.026;2023-04-02T00:06:33;97247.09;;;10.30;100.00
40920;BME280;26652;50.280;19.026;2023-04-02T00:08:43;97248.66;;;10.31;100.00
40920;BME280;26652;50.280;19.026;2023-04-02T00:11:05;97235.22;;;10.24;100.00
40920;BME280;26652;50.280;19.026;2023-04-02T00:15:28;97243.78;;;10.29;100.00
40920;BME280;26652;50.280;19.026;2023-04-02T00:17:40;97247.88;;;10.30;100.00
40920;BME280;26652;50.280;19.026;2023-04-02T00:20:03;97252.19;;;10.30;100.00
40920;BME280;26652;50.280;19.026;2023-04-02T00:22:21;97251.00;;;10.32;100.00
40920;BME280;26652;50.280;19.026;2023-04-02T00:24:49;97251.22;;;10.31;100.00
40920;BME280;26652;50.280;19.026;2023-04-02T00:26:56;97255.72;;;10.29;100.00
40920;BME280;26652;50.280;19.026;2023-04-02T00:29:18;97255.31;;;10.32;100.00
40920;BME280;26652;50.280;19.026;2023-04-02T00:31:33;97250.22;;;10.32;100.00
40920;BME280;26652;50.280;19.026;2023-04-02T00:33:48;97249.63;;;10.36;100.00
40920;BME280;26652;50.280;19.026;2023-04-02T00:35:57;97260.66;;;10.48;100.00
40920;BME280;26652;50.280;19.026;2023-04-02T00:38:21;97256.84;;;10.39;100.00
40920;BME280;26652;50.280;19.026;2023-04-02T00:40:32;97257.44;;;10.35;100.00
40920;BME280;26652;50.280;19.026;2023-04-02T00:42:54;97256.59;;;10.41;100.00
40920;BME280;26652;50.280;19.026;2023-04-02T00:45:16;97259.38;;;10.39;100.00
40920;BME280;26652;50.280;19.026;2023-04-02T00:47:34;97261.56;;;10.36;100.00
40920;BME280;26652;50.280;19.026;2023-04-02T00:49:44;97259.78;;;10.36;100.00
40920;BME280;26652;50.280;19.026;2023-04-02T00:51:58;97259.22;;;10.34;100.00
40920;BME280;26652;50.280;19.026;2023-04-02T00:54:08;97250.81;;;10.34;100.00
40920;BME280;26652;50.280;19.026;2023-04-02T00:56:41;97263.31;;;10.35;100.00
40920;BME280;26652;50.280;19.026;2023-04-02T00:58:52;97259.03;;;10.29;100.00
40920;BME280;26652;50.280;19.026;2023-04-02T01:01:13;97256.87;;;10.33;100.00
40920;BME280;26652;50.280;19.026;2023-04-02T01:03:33;97264.50;;;10.33;100.00
40920;BME280;26652;50.280;19.026;2023-04-02T01:05:47;97263.72;;;10.32;100.00
40920;BME280;26652;50.280;19.026;2023-04-02T01:15:55;97282.34;;;10.26;100.00
40920;BME280;26652;50.280;19.026;2023-04-02T01:18:25;97282.13;;;10.28;100.00
40920;BME280;26652;50.280;19.026;2023-04-02T01:26:38;97280.19;;;10.16;100.00
40920;BME280;26652;50.280;19.026;2023-04-02T01:29:43;97264.84;;;9.98;100.00
40920;BME280;26652;50.280;19.026;2023-04-02T01:32:06;97272.44;;;10.05;100.00
40920;BME280;26652;50.280;19.026;2023-04-02T01:34:15;97274.78;;;10.06;100.00
40920;BME280;26652;50.280;19.026;2023-04-02T01:42:24;97278.28;;;10.05;100.00
40920;BME280;26652;50.280;19.026;2023-04-02T01:44:51;97281.66;;;9.99;100.00
40920;BME280;26652;50.280;19.026;2023-04-02T01:47:12;97283.22;;;10.00;100.00
40920;BME280;26652;50.280;19.026;2023-04-02T01:49:22;97286.56;;;9.94;100.00
40920;BME280;26652;50.280;19.026;2023-04-02T01:51:34;97277.16;;;9.95;100.00
40920;BME280;26652;50.280;19.026;2023-04-02T01:53:45;97281.28;;;9.89;100.00
40920;BME280;26652;50.280;19.026;2023-04-02T01:56:03;97285.78;;;9.94;100.00
40920;BME280;26652;50.280;19.026;2023-04-02T01:58:16;97284.03;;;9.88;100.00
40920;BME280;26652;50.280;19.026;2023-04-02T02:00:29;97278.16;;;9.87;100.00
40920;BME280;26652;50.280;19.026;2023-04-02T02:02:36;97282.69;;;9.85;100.00
40920;BME280;26652;50.280;19.026;2023-04-02T02:04:48;97283.22;;;9.94;100.00
40920;BME280;26652;50.280;19.026;2023-04-02T02:07:01;97287.53;;;9.93;100.00
40920;BME280;26652;50.280;19.026;2023-04-02T02:09:34;97291.66;;;9.88;100.00
40920;BME280;26652;50.280;19.026;2023-04-02T02:11:58;97292.84;;;9.85;100.00
40920;BME280;26652;50.280;19.026;2023-04-02T02:14:21;97301.25;;;9.79;100.00
40920;BME280;26652;50.280;19.026;2023-04-02T02:16:30;97302.06;;;9.73;100.00
40920;BME280;26652;50.280;19.026;2023-04-02T02:19:03;97304.19;;;9.82;100.00
40920;BME280;26652;50.280;19.026;2023-04-02T02:21:10;97303.59;;;9.80;100.00
40920;BME280;26652;50.280;19.026;2023-04-02T02:23:37;97298.34;;;9.75;100.00
40920;BME280;26652;50.280;19.026;2023-04-02T02:26:10;97304.78;;;9.78;100.00
40920;BME280;26652;50.280;19.026;2023-04-02T02:28:38;97299.12;;;9.69;100.00
40920;BME280;26652;50.280;19.026;2023-04-02T02:31:04;97304.63;;;9.66;100.00
40920;BME280;26652;50.280;19.026;2023-04-02T02:33:44;97297.22;;;9.58;100.00
40920;BME280;26652;50.280;19.026;2023-04-02T02:39:07;97308.34;;;9.64;100.00
40920;BME280;26652;50.280;19.026;2023-04-02T02:43:49;97312.22;;;9.79;100.00
40920;BME280;26652;50.280;19.026;2023-04-02T02:46:15;97313.00;;;9.80;100.00
40920;BME280;26652;50.280;19.026;2023-04-02T02:48:37;97315.16;;;9.70;100.00
40920;BME280;26652;50.280;19.026;2023-04-02T02:51:03;97314.00;;;9.66;100.00
40920;BME280;26652;50.280;19.026;2023-04-02T02:53:19;97320.25;;;9.57;100.00
40920;BME280;26652;50.280;19.026;2023-04-02T02:55:34;97315.38;;;9.62;100.00
40920;BME280;26652;50.280;19.026;2023-04-02T02:58:04;97321.22;;;9.69;100.00
40920;BME280;26652;50.280;19.026;2023-04-02T03:00:15;97327.84;;;9.76;100.00
40920;BME280;26652;50.280;19.026;2023-04-02T03:02:23;97322.97;;;9.75;100.00
40920;BME280;26652;50.280;19.026;2023-04-02T03:04:36;97331.97;;;9.71;100.00
40920;BME280;26652;50.280;19.026;2023-04-02T03:06:44;97334.91;;;9.74;100.00
40920;BME280;26652;50.280;19.026;2023-04-02T03:10:09;97329.62;;;9.69;100.00
40920;BME280;26652;50.280;19.026;2023-04-02T03:14:37;97342.94;;;9.58;100.00
40920;BME280;26652;50.280;19.026;2023-04-02T03:16:48;97336.28;;;9.64;100.00
40920;BME280;26652;50.280;19.026;2023-04-02T03:20:24;97344.88;;;9.63;100.00
40920;BME280;26652;50.280;19.026;2023-04-02T03:22:46;97342.72;;;9.66;100.00
40920;BME280;26652;50.280;19.026;2023-04-02T03:27:46;97341.34;;;9.70;100.00
40920;BME280;26652;50.280;19.026;2023-04-02T03:30:30;97345.47;;;9.65;100.00
40920;BME280;26652;50.280;19.026;2023-04-02T03:32:41;97343.91;;;9.64;100.00
40920;BME280;26652;50.280;19.026;2023-04-02T03:35:03;97352.50;;;9.69;100.00
40920;BME280;26652;50.280;19.026;2023-04-02T03:37:21;97353.66;;;9.73;100.00
40920;BME280;26652;50.280;19.026;2023-04-02T03:39:50;97348.56;;;9.73;100.00
40920;BME280;26652;50.280;19.026;2023-04-02T03:42:19;97351.72;;;9.69;100.00
40920;BME280;26652;50.280;19.026;2023-04-02T03:44:59;97359.91;;;9.71;100.00
40920;BME280;26652;50.280;19.026;2023-04-02T03:47:49;97362.84;;;9.68;100.00
40920;BME280;26652;50.280;19.026;2023-04-02T03:50:40;97361.28;;;9.73;100.00
40920;BME280;26652;50.280;19.026;2023-04-02T03:53:03;97369.28;;;9.77;100.00
40920;BME280;26652;50.280;19.026;2023-04-02T03:55:35;97372.03;;;9.69;100.00
40920;BME280;26652;50.280;19.026;2023-04-02T04:01:38;97374.19;;;9.59;100.00
40920;BME280;26652;50.280;19.026;2023-04-02T04:04:06;97366.78;;;9.44;100.00
40920;BME280;26652;50.280;19.026;2023-04-02T04:06:29;97382.78;;;9.44;100.00
40920;BME280;26652;50.280;19.026;2023-04-02T04:08:50;97378.69;;;9.43;100.00
40920;BME280;26652;50.280;19.026;2023-04-02T04:11:13;97378.50;;;9.45;100.00
40920;BME280;26652;50.280;19.026;2023-04-02T04:13:45;97381.03;;;9.38;100.00
40920;BME280;26652;50.280;19.026;2023-04-02T04:16:04;97380.44;;;9.43;100.00
40920;BME280;26652;50.280;19.026;2023-04-02T04:18:27;97384.75;;;9.42;100.00
40920;BME280;26652;50.280;19.026;2023-04-02T04:20:54;97390.81;;;9.41;100.00
40920;BME280;26652;50.280;19.026;2023-04-02T04:23:26;97395.09;;;9.47;100.00
40920;BME280;26652;50.280;19.026;2023-04-02T04:25:47;97402.91;;;9.46;100.00
40920;BME280;26652;50.280;19.026;2023-04-02T04:28:32;97401.75;;;9.42;100.00
40920;BME280;26652;50.280;19.026;2023-04-02T04:33:31;97405.84;;;9.56;100.00
40920;BME280;26652;50.280;19.026;2023-04-02T04:35:52;97403.09;;;9.64;100.00
40920;BME280;26652;50.280;19.026;2023-04-02T04:38:13;97408.19;;;9.64;100.00
40920;BME280;26652;50.280;19.026;2023-04-02T04:40:33;97408.59;;;9.68;100.00
40920;BME280;26652;50.280;19.026;2023-04-02T04:42:43;97407.59;;;9.69;100.00
40920;BME280;26652;50.280;19.026;2023-04-02T04:48:22;97417.97;;;9.74;100.00
40920;BME280;26652;50.280;19.026;2023-04-02T04:51:09;97423.22;;;9.72;100.00
40920;BME280;26652;50.280;19.026;2023-04-02T04:53:24;97428.72;;;9.69;100.00
40920;BME280;26652;50.280;19.026;2023-04-02T04:55:46;97423.63;;;9.63;100.00
40920;BME280;26652;50.280;19.026;2023-04-02T04:57:57;97432.22;;;9.55;100.00
40920;BME280;26652;50.280;19.026;2023-04-02T05:00:59;97423.03;;;9.47;100.00
40920;BME280;26652;50.280;19.026;2023-04-02T05:03:17;97433.03;;;9.36;100.00
40920;BME280;26652;50.280;19.026;2023-04-02T05:05:35;97438.06;;;9.16;100.00
40920;BME280;26652;50.280;19.026;2023-04-02T05:07:55;97432.78;;;9.04;100.00
40920;BME280;26652;50.280;19.026;2023-04-02T05:10:20;97446.41;;;8.97;100.00
40920;BME280;26652;50.280;19.026;2023-04-02T05:12:45;97442.50;;;8.88;100.00
40920;BME280;26652;50.280;19.026;2023-04-02T05:15:05;97450.22;;;8.66;100.00
40920;BME280;26652;50.280;19.026;2023-04-02T05:17:34;97448.81;;;8.57;100.00
40920;BME280;26652;50.280;19.026;2023-04-02T05:20:14;97460.09;;;8.48;100.00
40920;BME280;26652;50.280;19.026;2023-04-02T05:22:34;97452.59;;;8.33;100.00
40920;BME280;26652;50.280;19.026;2023-04-02T05:25:21;97455.50;;;8.30;100.00
40920;BME280;26652;50.280;19.026;2023-04-02T05:28:35;97457.06;;;8.31;100.00
40920;BME280;26652;50.280;19.026;2023-04-02T05:30:35;97466.22;;;8.32;100.00
40920;BME280;26652;50.280;19.026;2023-04-02T05:32:47;97472.25;;;8.25;100.00
40920;BME280;26652;50.280;19.026;2023-04-02T05:34:59;97471.56;;;8.09;100.00
40920;BME280;26652;50.280;19.026;2023-04-02T05:37:21;97483.91;;;7.91;100.00
40920;BME280;26652;50.280;19.026;2023-04-02T05:39:30;97480.78;;;7.89;100.00
40920;BME280;26652;50.280;19.026;2023-04-02T05:41:45;97490.03;;;7.75;100.00
40920;BME280;26652;50.280;19.026;2023-04-02T05:44:15;97489.78;;;7.70;100.00
40920;BME280;26652;50.280;19.026;2023-04-02T05:46:27;97487.91;;;7.58;100.00
40920;BME280;26652;50.280;19.026;2023-04-02T05:48:42;97496.13;;;7.60;100.00
40920;BME280;26652;50.280;19.026;2023-04-02T05:50:55;97489.66;;;7.57;100.00
40920;BME280;26652;50.280;19.026;2023-04-02T05:53:18;97490.94;;;7.46;100.00
40920;BME280;26652;50.280;19.026;2023-04-02T05:55:52;97503.94;;;7.43;100.00
40920;BME280;26652;50.280;19.026;2023-04-02T05:58:36;97490.38;;;7.30;100.00
40920;BME280;26652;50.280;19.026;2023-04-02T06:00:49;97505.16;;;7.26;100.00
40920;BME280;26652;50.280;19.026;2023-04-02T06:03:11;97508.78;;;7.02;100.00
40920;BME280;26652;50.280;19.026;2023-04-02T06:05:22;97520.31;;;6.90;100.00
40920;BME280;26652;50.280;19.026;2023-04-02T06:07:57;97522.53;;;6.78;100.00
40920;BME280;26652;50.280;19.026;2023-04-02T06:10:13;97516.50;;;6.79;100.00
40920;BME280;26652;50.280;19.026;2023-04-02T06:12:57;97528.38;;;6.79;100.00
40920;BME280;26652;50.280;19.026;2023-04-02T06:15:13;97523.66;;;6.76;100.00
40920;BME280;26652;50.280;19.026;2023-04-02T06:17:26;97529.59;;;6.68;100.00
40920;BME280;26652;50.280;19.026;2023-04-02T06:19:35;97540.66;;;6.67;100.00
40920;BME280;26652;50.280;19.026;2023-04-02T06:21:47;97541.00;;;6.64;100.00
40920;BME280;26652;50.280;19.026;2023-04-02T06:23:58;97553.13;;;6.69;100.00
40920;BME280;26652;50.280;19.026;2023-04-02T06:26:24;97556.53;;;6.61;100.00
40920;BME280;26652;50.280;19.026;2023-04-02T06:28:44;97564.25;;;6.45;100.00
40920;BME280;26652;50.280;19.026;2023-04-02T06:31:21;97573.75;;;6.43;100.00
40920;BME280;26652;50.280;19.026;2023-04-02T06:33:37;97579.06;;;6.33;100.00
40920;BME280;26652;50.280;19.026;2023-04-02T06:35:59;97578.34;;;6.24;100.00
40920;BME280;26652;50.280;19.026;2023-04-02T06:38:13;97587.06;;;6.22;100.00
40920;BME280;26652;50.280;19.026;2023-04-02T06:42:54;97601.69;;;6.12;100.00
40920;BME280;26652;50.280;19.026;2023-04-02T06:45:16;97613.13;;;6.00;100.00
40920;BME280;26652;50.280;19.026;2023-04-02T06:47:35;97614.09;;;5.99;100.00
40920;BME280;26652;50.280;19.026;2023-04-02T06:50:02;97618.06;;;5.93;100.00
40920;BME280;26652;50.280;19.026;2023-04-02T06:52:18;97614.72;;;6.01;100.00
40920;BME280;26652;50.280;19.026;2023-04-02T06:54:30;97627.66;;;5.98;100.00
40920;BME280;26652;50.280;19.026;2023-04-02T06:56:50;97627.22;;;5.86;100.00
40920;BME280;26652;50.280;19.026;2023-04-02T06:59:02;97634.84;;;5.78;100.00
40920;BME280;26652;50.280;19.026;2023-04-02T07:01:21;97626.91;;;5.58;100.00
40920;BME280;26652;50.280;19.026;2023-04-02T07:03:34;97641.31;;;5.49;100.00
40920;BME280;26652;50.280;19.026;2023-04-02T07:05:45;97643.25;;;5.39;100.00
40920;BME280;26652;50.280;19.026;2023-04-02T07:07:57;97646.09;;;5.36;100.00
40920;BME280;26652;50.280;19.026;2023-04-02T07:10:26;97651.13;;;5.36;100.00
40920;BME280;26652;50.280;19.026;2023-04-02T07:12:45;97659.97;;;5.40;100.00
40920;BME280;26652;50.280;19.026;2023-04-02T07:14:51;97660.13;;;5.39;100.00
40920;BME280;26652;50.280;19.026;2023-04-02T07:17:12;97659.78;;;5.42;100.00
40920;BME280;26652;50.280;19.026;2023-04-02T07:19:20;97659.81;;;5.34;100.00
40920;BME280;26652;50.280;19.026;2023-04-02T07:21:30;97675.44;;;5.29;100.00
40920;BME280;26652;50.280;19.026;2023-04-02T07:23:39;97664.44;;;5.22;100.00
40920;BME280;26652;50.280;19.026;2023-04-02T07:25:53;97675.94;;;5.24;100.00
40920;BME280;26652;50.280;19.026;2023-04-02T07:28:00;97678.00;;;5.21;100.00
40920;BME280;26652;50.280;19.026;2023-04-02T07:30:17;97680.72;;;5.19;100.00
40920;BME280;26652;50.280;19.026;2023-04-02T07:32:27;97691.75;;;5.18;100.00
40920;BME280;26652;50.280;19.026;2023-04-02T07:34:45;97699.75;;;5.22;100.00
40920;BME280;26652;50.280;19.026;2023-04-02T07:37:04;97694.84;;;5.20;100.00
40920;BME280;26652;50.280;19.026;2023-04-02T07:39:14;97693.91;;;5.21;100.00
40920;BME280;26652;50.280;19.026;2023-04-02T07:41:22;97702.00;;;5.17;100.00
40920;BME280;26652;50.280;19.026;2023-04-02T07:43:41;97710.34;;;5.17;100.00
40920;BME280;26652;50.280;19.026;2023-04-02T07:45:46;97719.31;;;5.20;100.00
40920;BME280;26652;50.280;19.026;2023-04-02T07:48:08;97716.50;;;5.15;100.00
40920;BME280;26652;50.280;19.026;2023-04-02T07:50:17;97727.50;;;5.22;100.00
40920;BME280;26652;50.280;19.026;2023-04-02T07:52:40;97715.66;;;5.31;100.00
40920;BME280;26652;50.280;19.026;2023-04-02T07:54:45;97741.62;;;5.47;100.00
40920;BME280;26652;50.280;19.026;2023-04-02T07:56:54;97741.62;;;5.47;100.00
40920;BME280;26652;50.280;19.026;2023-04-02T07:59:04;97742.12;;;5.35;100.00
40920;BME280;26652;50.280;19.026;2023-04-02T08:01:26;97744.97;;;5.32;100.00
40920;BME280;26652;50.280;19.026;2023-04-02T08:03:35;97751.28;;;5.36;100.00
40920;BME280;26652;50.280;19.026;2023-04-02T08:05:52;97762.94;;;5.37;100.00
40920;BME280;26652;50.280;19.026;2023-04-02T08:07:58;97756.62;;;5.33;100.00
40920;BME280;26652;50.280;19.026;2023-04-02T08:10:28;97759.63;;;5.28;100.00
40920;BME280;26652;50.280;19.026;2023-04-02T08:12:37;97774.78;;;5.28;100.00
40920;BME280;26652;50.280;19.026;2023-04-02T08:14:52;97772.41;;;5.26;100.00
40920;BME280;26652;50.280;19.026;2023-04-02T08:17:10;97781.75;;;5.18;100.00
40920;BME280;26652;50.280;19.026;2023-04-02T08:19:25;97785.06;;;5.18;100.00
40920;BME280;26652;50.280;19.026;2023-04-02T08:21:34;97776.72;;;5.10;100.00
40920;BME280;26652;50.280;19.026;2023-04-02T08:24:04;97780.03;;;5.02;100.00
40920;BME280;26652;50.280;19.026;2023-04-02T08:26:15;97791.37;;;5.06;100.00
40920;BME280;26652;50.280;19.026;2023-04-02T08:28:26;97796.56;;;5.05;100.00
40920;BME280;26652;50.280;19.026;2023-04-02T08:30:34;97803.19;;;5.06;100.00
40920;BME280;26652;50.280;19.026;2023-04-02T08:32:58;97808.72;;;5.09;100.00
40920;BME280;26652;50.280;19.026;2023-04-02T08:35:07;97809.94;;;5.21;100.00
40920;BME280;26652;50.280;19.026;2023-04-02T08:37:20;97802.41;;;5.13;100.00
40920;BME280;26652;50.280;19.026;2023-04-02T08:39:28;97809.16;;;5.21;100.00
40920;BME280;26652;50.280;19.026;2023-04-02T08:41:50;97823.66;;;5.27;100.00
40920;BME280;26652;50.280;19.026;2023-04-02T08:46:50;97823.19;;;5.23;100.00
40920;BME280;26652;50.280;19.026;2023-04-02T08:49:01;97837.09;;;5.19;100.00
40920;BME280;26652;50.280;19.026;2023-04-02T08:51:23;97837.69;;;5.21;100.00
40920;BME280;26652;50.280;19.026;2023-04-02T08:53:37;97851.56;;;5.25;100.00
40920;BME280;26652;50.280;19.026;2023-04-02T08:58:38;97853.16;;;5.10;100.00
40920;BME280;26652;50.280;19.026;2023-04-02T09:01:02;97846.69;;;5.08;100.00
40920;BME280;26652;50.280;19.026;2023-04-02T09:03:44;97859.31;;;5.00;100.00
40920;BME280;26652;50.280;19.026;2023-04-02T09:05:52;97849.53;;;5.05;100.00
40920;BME280;26652;50.280;19.026;2023-04-02T09:08:20;97866.09;;;5.07;100.00
40920;BME280;26652;50.280;19.026;2023-04-02T09:10:41;97862.47;;;5.18;100.00
40920;BME280;26652;50.280;19.026;2023-04-02T09:12:54;97861.19;;;5.22;100.00
40920;BME280;26652;50.280;19.026;2023-04-02T09:15:30;97868.28;;;5.26;100.00
40920;BME280;26652;50.280;19.026;2023-04-02T09:17:43;97875.53;;;5.38;100.00
40920;BME280;26652;50.280;19.026;2023-04-02T09:20:16;97873.94;;;5.53;100.00
40920;BME280;26652;50.280;19.026;2023-04-02T09:22:32;97880.25;;;5.49;100.00
40920;BME280;26652;50.280;19.026;2023-04-02T09:24:49;97890.19;;;5.58;100.00
40920;BME280;26652;50.280;19.026;2023-04-02T09:27:01;97883.41;;;5.59;100.00
40920;BME280;26652;50.280;19.026;2023-04-02T09:29:26;97896.34;;;5.64;100.00
40920;BME280;26652;50.280;19.026;2023-04-02T09:31:54;97900.28;;;5.67;100.00
40920;BME280;26652;50.280;19.026;2023-04-02T09:34:30;97901.06;;;5.43;100.00
40920;BME280;26652;50.280;19.026;2023-04-02T09:36:40;97909.12;;;5.46;100.00
40920;BME280;26652;50.280;19.026;2023-04-02T09:39:17;97900.59;;;5.23;100.00
40920;BME280;26652;50.280;19.026;2023-04-02T09:41:32;97919.97;;;5.22;100.00
40920;BME280;26652;50.280;19.026;2023-04-02T09:43:38;97918.13;;;5.16;100.00
40920;BME280;26652;50.280;19.026;2023-04-02T09:48:44;97920.78;;;5.15;100.00
40920;BME280;26652;50.280;19.026;2023-04-02T09:51:50;97912.44;;;5.14;100.00
40920;BME280;26652;50.280;19.026;2023-04-02T09:54:10;97923.31;;;5.31;100.00
40920;BME280;26652;50.280;19.026;2023-04-02T09:56:24;97932.94;;;5.36;100.00
40920;BME280;26652;50.280;19.026;2023-04-02T09:58:44;97936.22;;;5.28;100.00
40920;BME280;26652;50.280;19.026;2023-04-02T10:00:56;97939.06;;;5.33;100.00
40920;BME280;26652;50.280;19.026;2023-04-02T10:03:27;97938.59;;;5.30;100.00
40920;BME280;26652;50.280;19.026;2023-04-02T10:05:38;97946.66;;;5.33;100.00
40920;BME280;26652;50.280;19.026;2023-04-02T10:07:50;97943.97;;;5.26;100.00
40920;BME280;26652;50.280;19.026;2023-04-02T10:10:13;97944.13;;;5.25;100.00
40920;BME280;26652;50.280;19.026;2023-04-02T10:12:25;97948.84;;;5.36;100.00
40920;BME280;26652;50.280;19.026;2023-04-02T10:14:42;97962.25;;;5.37;100.00
40920;BME280;26652;50.280;19.026;2023-04-02T10:17:05;97957.38;;;5.19;100.00
40920;BME280;26652;50.280;19.026;2023-04-02T10:19:41;97966.50;;;5.28;100.00
40920;BME280;26652;50.280;19.026;2023-04-02T10:21:52;97975.50;;;5.39;100.00
40920;BME280;26652;50.280;19.026;2023-04-02T10:24:14;97963.97;;;5.28;100.00
40920;BME280;26652;50.280;19.026;2023-04-02T10:31:58;97976.16;;;5.41;100.00
40920;BME280;26652;50.280;19.026;2023-04-02T10:34:20;97979.31;;;5.43;100.00
40920;BME280;26652;50.280;19.026;2023-04-02T10:36:51;97979.00;;;5.46;100.00
40920;BME280;26652;50.280;19.026;2023-04-02T10:39:55;97985.78;;;5.53;100.00
40920;BME280;26652;50.280;19.026;2023-04-02T10:42:05;97985.62;;;5.55;100.00
40920;BME280;26652;50.280;19.026;2023-04-02T10:47:00;98000.44;;;5.50;100.00
40920;BME280;26652;50.280;19.026;2023-04-02T10:49:37;97996.50;;;5.39;100.00
40920;BME280;26652;50.280;19.026;2023-04-02T10:54:39;98003.28;;;5.47;100.00
40920;BME280;26652;50.280;19.026;2023-04-02T10:56:49;98008.97;;;5.57;100.00
40920;BME280;26652;50.280;19.026;2023-04-02T11:01:27;98014.34;;;5.54;100.00
40920;BME280;26652;50.280;19.026;2023-04-02T11:06:26;98015.59;;;5.50;100.00
40920;BME280;26652;50.280;19.026;2023-04-02T11:08:50;98031.34;;;5.44;100.00
40920;BME280;26652;50.280;19.026;2023-04-02T11:11:21;98028.84;;;5.44;100.00
40920;BME280;26652;50.280;19.026;2023-04-02T11:13:52;98035.94;;;5.48;100.00
40920;BME280;26652;50.280;19.026;2023-04-02T11:16:00;98039.38;;;5.39;100.00
40920;BME280;26652;50.280;19.026;2023-04-02T11:18:30;98042.37;;;5.35;100.00
40920;BME280;26652;50.280;19.026;2023-04-02T11:23:10;98047.78;;;5.56;100.00
40920;BME280;26652;50.280;19.026;2023-04-02T11:25:21;98053.44;;;5.42;100.00
40920;BME280;26652;50.280;19.026;2023-04-02T11:27:36;98046.00;;;5.40;100.00
40920;BME280;26652;50.280;19.026;2023-04-02T11:30:03;98059.13;;;5.52;100.00
40920;BME280;26652;50.280;19.026;2023-04-02T11:32:38;98064.19;;;5.60;100.00
40920;BME280;26652;50.280;19.026;2023-04-02T11:37:10;98067.28;;;5.38;100.00
40920;BME280;26652;50.280;19.026;2023-04-02T11:39:55;98075.03;;;5.36;100.00
40920;BME280;26652;50.280;19.026;2023-04-02T11:42:33;98071.28;;;5.48;100.00
40920;BME280;26652;50.280;19.026;2023-04-02T11:44:39;98079.31;;;5.52;100.00
40920;BME280;26652;50.280;19.026;2023-04-02T11:46:52;98068.38;;;5.27;100.00
40920;BME280;26652;50.280;19.026;2023-04-02T11:49:37;98072.28;;;5.21;100.00
40920;BME280;26652;50.280;19.026;2023-04-02T11:51:50;98085.88;;;5.29;100.00
40920;BME280;26652;50.280;19.026;2023-04-02T11:53:56;98074.50;;;5.24;100.00
40920;BME280;26652;50.280;19.026;2023-04-02T11:56:26;98082.41;;;5.30;100.00
40920;BME280;26652;50.280;19.026;2023-04-02T11:58:50;98080.56;;;5.40;100.00
40920;BME280;26652;50.280;19.026;2023-04-02T12:04:26;98082.84;;;5.67;100.00
40920;BME280;26652;50.280;19.026;2023-04-02T12:09:15;98095.28;;;5.61;100.00
40920;BME280;26652;50.280;19.026;2023-04-02T12:11:47;98089.28;;;5.53;100.00
40920;BME280;26652;50.280;19.026;2023-04-02T12:13:53;98092.72;;;5.44;100.00
40920;BME280;26652;50.280;19.026;2023-04-02T12:16:12;98093.31;;;5.38;100.00
40920;BME280;26652;50.280;19.026;2023-04-02T12:18:24;98091.75;;;5.45;100.00
40920;BME280;26652;50.280;19.026;2023-04-02T12:20:34;98095.09;;;5.46;100.00
40920;BME280;26652;50.280;19.026;2023-04-02T12:22:50;98101.38;;;5.42;100.00
40920;BME280;26652;50.280;19.026;2023-04-02T12:25:30;98104.03;;;5.32;100.00
40920;BME280;26652;50.280;19.026;2023-04-02T12:27:37;98103.91;;;5.42;100.00
40920;BME280;26652;50.280;19.026;2023-04-02T12:30:19;98106.91;;;5.45;100.00
40920;BME280;26652;50.280;19.026;2023-04-02T12:32:29;98109.47;;;5.53;100.00
40920;BME280;26652;50.280;19.026;2023-04-02T12:34:45;98112.34;;;5.67;100.00
40920;BME280;26652;50.280;19.026;2023-04-02T12:39:16;98115.28;;;5.54;100.00
40920;BME280;26652;50.280;19.026;2023-04-02T12:41:28;98120.97;;;5.48;100.00
40920;BME280;26652;50.280;19.026;2023-04-02T12:43:41;98126.03;;;5.56;100.00
40920;BME280;26652;50.280;19.026;2023-04-02T12:46:00;98126.66;;;5.58;100.00
40920;BME280;26652;50.280;19.026;2023-04-02T12:48:11;98124.78;;;5.60;100.00
40920;BME280;26652;50.280;19.026;2023-04-02T12:50:20;98131.19;;;5.46;100.00
40920;BME280;26652;50.280;19.026;2023-04-02T12:52:35;98136.09;;;5.48;100.00
40920;BME280;26652;50.280;19.026;2023-04-02T12:54:54;98131.50;;;5.43;100.00
40920;BME280;26652;50.280;19.026;2023-04-02T12:57:26;98131.31;;;5.37;100.00
40920;BME280;26652;50.280;19.026;2023-04-02T12:59:35;98143.03;;;5.46;100.00
40920;BME280;26652;50.280;19.026;2023-04-02T13:01:58;98143.34;;;5.43;100.00
40920;BME280;26652;50.280;19.026;2023-04-02T13:04:10;98150.91;;;5.43;100.00
40920;BME280;26652;50.280;19.026;2023-04-02T13:06:24;98144.88;;;5.36;100.00
40920;BME280;26652;50.280;19.026;2023-04-02T13:08:35;98141.53;;;5.19;100.00
40920;BME280;26652;50.280;19.026;2023-04-02T13:11:00;98156.97;;;5.24;100.00
40920;BME280;26652;50.280;19.026;2023-04-02T13:13:11;98156.50;;;5.29;100.00
40920;BME280;26652;50.280;19.026;2023-04-02T13:15:27;98156.00;;;5.51;100.00
40920;BME280;26652;50.280;19.026;2023-04-02T13:17:39;98162.69;;;5.68;100.00
40920;BME280;26652;50.280;19.026;2023-04-02T13:19:48;98153.22;;;5.70;100.00
40920;BME280;26652;50.280;19.026;2023-04-02T13:22:28;98167.53;;;5.62;100.00
40920;BME280;26652;50.280;19.026;2023-04-02T13:24:37;98159.97;;;5.62;100.00
40920;BME280;26652;50.280;19.026;2023-04-02T13:26:49;98161.69;;;5.61;100.00
40920;BME280;26652;50.280;19.026;2023-04-02T13:29:24;98171.22;;;5.75;100.00
40920;BME280;26652;50.280;19.026;2023-04-02T13:31:31;98183.09;;;5.83;100.00
40920;BME280;26652;50.280;19.026;2023-04-02T13:33:39;98171.44;;;5.90;100.00
40920;BME280;26652;50.280;19.026;2023-04-02T13:35:54;98183.31;;;5.98;100.00